.
WxDataArchive / Data Records for 2013-04-12
2013-04-11 April 2013 2013-04-13

Data Records for Friday, 12 April 2013

Time	Temp	Chill	HIndex	Humid	Dewpt	 Wind 	HiWind	WindDir	Rain 	Barom 
-----	----	-----	------	-----	-----	------	------	-------	-----	----- 
00:00	39.5	39.5	39.5	96	38.5	2	5	90	0.00	29.581 
00:05	39.5	39.5	39.5	96	38.5	2	6	90	0.00	29.581 
00:10	39.5	39.5	39.5	96	38.5	2	4	90	0.00	29.581 
00:15	39.5	39.5	39.5	96	38.5	1	4	112	0.01	29.569 
00:20	39.5	39.5	39.5	96	38.5	2	7	112	0.00	29.569 
00:25	39.5	39.5	39.5	96	38.5	1	7	90	0.00	29.569 
00:30	39.5	39.5	39.5	96	38.5	2	6	112	0.00	29.565 
00:35	39.5	39.5	39.5	96	38.5	2	6	90	0.00	29.565 
00:40	39.5	39.5	39.5	96	38.5	2	7	112	0.00	29.565 
00:45	39.5	39.5	39.5	96	38.5	1	4	112	0.00	29.559 
00:50	39.5	39.5	39.5	96	38.5	1	3	112	0.00	29.559 
00:55	39.6	39.6	39.6	96	38.6	0	2	112	0.00	29.559 
01:00	39.5	39.5	39.5	96	38.5	0	1	112	0.01	29.566 
01:05	39.5	39.5	39.5	96	38.5	0	1	112	0.00	29.566 
01:10	39.6	39.6	39.6	96	38.6	1	2	112	0.00	29.566 
01:15	39.5	39.5	39.5	96	38.5	1	4	112	0.00	29.564 
01:20	39.5	39.5	39.5	96	38.5	0	1	112	0.00	29.564 
01:25	39.5	39.5	39.5	96	38.5	0	2	112	0.00	29.564 
01:30	39.5	39.5	39.5	96	38.5	0	1	112	0.00	29.565 
01:35	39.5	39.5	39.5	96	38.5	0	0	---	0.00	29.565 
01:40	39.5	39.5	39.5	96	38.5	0	0	---	0.00	29.565 
01:45	39.6	39.6	39.6	96	38.6	0	0	---	0.01	29.571 
01:50	39.6	39.6	39.6	96	38.6	0	0	---	0.00	29.571 
01:55	39.6	39.6	39.6	96	38.6	0	0	---	0.00	29.571 
02:00	39.6	39.6	39.6	96	38.6	0	1	112	0.00	29.572 
02:05	39.6	39.6	39.6	96	38.6	0	0	---	0.00	29.572 
02:10	39.6	39.6	39.6	96	38.6	0	0	---	0.00	29.572 
02:15	39.6	39.6	39.6	96	38.6	0	0	---	0.00	29.567 
02:20	39.6	39.6	39.6	96	38.6	0	0	---	0.00	29.567 
02:25	39.6	39.6	39.6	96	38.6	0	0	---	0.00	29.567 
02:30	39.6	39.6	39.6	96	38.6	0	1	112	0.01	29.574 
02:35	39.6	39.6	39.6	96	38.6	0	0	---	0.00	29.574 
02:40	39.6	39.6	39.6	96	38.6	0	0	---	0.00	29.574 
02:45	39.6	39.6	39.6	96	38.6	0	0	---	0.00	29.568 
02:50	39.6	39.6	39.6	96	38.6	0	1	112	0.00	29.568 
02:55	39.8	39.8	39.8	96	38.8	0	0	---	0.00	29.568 
03:00	39.8	39.8	39.8	96	38.8	0	1	112	0.00	29.580 
03:05	39.6	39.6	39.6	96	38.6	0	0	---	0.00	29.580 
03:10	39.6	39.6	39.6	96	38.6	0	0	---	0.00	29.580 
03:15	39.6	39.6	39.6	96	38.6	0	1	112	0.01	29.573 
03:20	39.8	39.8	39.8	96	38.8	0	1	112	0.00	29.573 
03:25	39.8	39.8	39.8	96	38.8	0	1	112	0.00	29.573 
03:30	39.8	39.8	39.8	96	38.8	0	1	112	0.00	29.569 
03:35	39.8	39.8	39.8	96	38.8	0	1	112	0.00	29.569 
03:40	39.9	39.9	39.9	96	38.9	0	0	---	0.00	29.569 
03:45	39.9	39.9	39.9	96	38.9	0	0	---	0.00	29.567 
03:50	39.9	39.9	39.9	96	38.9	0	0	---	0.00	29.567 
03:55	39.9	39.9	39.9	96	38.9	0	0	---	0.01	29.567 
04:00	39.8	39.8	39.8	96	38.8	0	0	---	0.00	29.555 
04:05	39.8	39.8	39.8	96	38.8	0	0	---	0.00	29.555 
04:10	39.9	39.9	39.9	96	38.9	0	0	---	0.00	29.555 
04:15	39.9	39.9	39.9	96	38.9	0	0	---	0.00	29.566 
04:20	39.9	39.9	39.9	96	38.9	0	0	---	0.00	29.566 
04:25	40.1	40.1	40.1	96	39.1	0	0	---	0.00	29.566 
04:30	40.1	40.1	40.1	96	39.1	0	0	---	0.00	29.565 
04:35	40.1	40.1	40.1	96	39.1	0	2	112	0.01	29.565 
04:40	40.1	40.1	40.1	96	39.1	0	3	225	0.00	29.565 
04:45	40.1	40.1	40.1	96	39.1	0	1	225	0.00	29.565 
04:50	40.1	40.1	40.1	96	39.1	0	1	225	0.00	29.565 
04:55	40.1	40.1	40.1	96	39.1	0	1	225	0.00	29.565 
05:00	40.2	40.2	40.2	96	39.2	0	0	---	0.00	29.565 
05:05	40.2	40.2	40.2	96	39.2	0	1	225	0.00	29.565 
05:10	40.2	40.2	40.2	96	39.2	0	1	225	0.01	29.565 
05:15	40.3	40.3	40.3	96	39.3	0	2	225	0.00	29.566 
05:20	40.5	40.5	40.5	96	39.5	0	2	225	0.00	29.566 
05:25	40.6	40.6	40.6	96	39.5	1	3	225	0.00	29.566 
05:30	40.8	40.8	40.8	97	40.0	2	6	248	0.00	29.573 
05:35	40.5	40.5	40.5	96	39.5	3	6	248	0.00	29.573 
05:40	40.3	40.3	40.3	96	39.3	2	5	248	0.00	29.573 
05:45	40.1	40.1	40.1	96	39.1	2	5	248	0.00	29.581 
05:50	39.9	39.9	39.9	96	38.9	2	4	248	0.00	29.581 
05:55	39.8	39.8	39.8	96	38.8	2	5	248	0.01	29.581 
06:00	39.6	39.6	39.6	96	38.6	3	6	248	0.00	29.582 
06:05	39.5	39.5	39.5	96	38.5	2	5	248	0.00	29.582 
06:10	39.3	39.3	39.3	96	38.3	3	6	248	0.00	29.582 
06:15	39.2	39.2	39.2	96	38.2	2	5	248	0.00	29.588 
06:20	39.1	39.1	39.1	96	38.1	2	4	248	0.00	29.588 
06:25	38.9	38.9	38.9	96	37.9	2	5	248	0.00	29.588 
06:30	38.9	38.9	38.9	96	37.9	2	4	248	0.00	29.587 
06:35	38.8	38.8	38.8	96	37.8	1	4	248	0.00	29.587 
06:40	38.8	38.8	38.8	95	37.5	1	4	248	0.01	29.587 
06:45	38.8	38.8	38.8	96	37.8	0	2	248	0.00	29.593 
06:50	38.8	38.8	38.8	96	37.8	1	4	248	0.00	29.593 
06:55	38.8	38.8	38.8	96	37.8	0	3	248	0.00	29.593 
07:00	38.8	38.8	38.8	96	37.8	0	3	248	0.00	29.601 
07:05	38.8	38.8	38.8	96	37.8	1	4	248	0.00	29.601 
07:10	38.6	38.6	38.6	96	37.6	1	2	248	0.00	29.601 
07:15	38.6	38.6	38.6	96	37.6	1	3	248	0.00	29.612 
07:20	38.5	38.5	38.5	96	37.5	0	4	248	0.00	29.612 
07:25	38.3	38.3	38.3	96	37.3	1	4	248	0.00	29.612 
07:30	38.3	38.3	38.3	96	37.3	1	3	248	0.00	29.618 
07:35	38.2	38.2	38.2	96	37.2	1	4	248	0.01	29.618 
07:40	38.2	38.2	38.2	96	37.2	1	4	248	0.00	29.618 
07:45	38.2	38.2	38.2	96	37.2	1	6	248	0.00	29.619 
07:50	38.2	38.2	38.2	96	37.2	0	3	248	0.00	29.619 
07:55	38.2	38.2	38.2	96	37.2	1	4	248	0.00	29.619 
08:00	38.3	38.3	38.3	96	37.3	1	4	248	0.00	29.627 
08:05	38.5	38.5	38.5	96	37.5	1	4	248	0.00	29.627 
08:10	38.5	38.5	38.5	96	37.5	1	3	248	0.00	29.627 
08:15	38.5	38.5	38.5	96	37.5	1	3	248	0.00	29.631 
08:20	38.3	38.3	38.3	96	37.3	1	6	248	0.00	29.631 
08:25	38.2	38.2	38.2	96	37.2	2	5	248	0.00	29.631 
08:30	38.2	38.2	38.2	96	37.2	1	5	248	0.01	29.638 
08:35	38.0	38.0	38.0	95	36.7	2	4	248	0.00	29.638 
08:40	38.0	38.0	38.0	95	36.7	1	3	248	0.00	29.638 
08:45	38.0	38.0	38.0	95	36.7	1	6	248	0.00	29.639 
08:50	38.0	38.0	38.0	95	36.7	2	7	248	0.00	29.639 
08:55	38.0	38.0	38.0	95	36.7	1	4	248	0.00	29.639 
09:00	37.8	37.8	37.8	94	36.2	3	9	248	0.00	29.646 
09:05	37.8	37.8	37.8	93	36.0	3	9	248	0.00	29.646 
09:10	37.9	37.9	37.9	93	36.1	1	6	248	0.00	29.646 
09:15	37.8	37.8	37.8	92	35.7	3	6	248	0.00	29.648 
09:20	37.9	37.9	37.9	90	35.2	2	10	248	0.00	29.648 
09:25	37.9	37.9	37.9	89	35.0	3	6	248	0.00	29.648 
09:30	38.0	38.0	38.0	88	34.8	2	6	248	0.00	29.650 
09:35	38.0	38.0	38.0	87	34.5	2	5	270	0.00	29.650 
09:40	38.2	38.2	38.2	86	34.4	2	6	248	0.01	29.650 
09:45	38.3	38.3	38.3	85	34.2	2	6	248	0.00	29.651 
09:50	38.0	38.0	38.0	84	33.6	2	5	270	0.00	29.651 
09:55	38.0	38.0	38.0	83	33.3	2	4	248	0.00	29.651 
10:00	38.2	38.2	38.2	83	33.5	2	6	248	0.00	29.660 
10:05	38.0	38.0	38.0	81	32.7	3	11	248	0.00	29.660 
10:10	38.0	38.0	38.0	81	32.7	3	11	248	0.00	29.660 
10:15	38.0	38.0	38.0	81	32.7	2	6	248	0.00	29.666 
10:20	38.0	38.0	38.0	80	32.4	3	11	248	0.00	29.666 
10:25	38.0	38.0	38.0	79	32.1	3	7	248	0.00	29.666 
10:30	38.0	38.0	38.0	79	32.1	2	7	248	0.00	29.671 
10:35	38.0	38.0	38.0	78	31.8	3	9	248	0.00	29.671 
10:40	38.0	38.0	38.0	78	31.8	1	5	248	0.00	29.671 
10:45	38.0	38.0	38.0	79	32.1	2	5	270	0.00	29.679 
10:50	38.0	38.0	38.0	79	32.1	1	4	248	0.00	29.679 
10:55	38.0	38.0	38.0	78	31.8	1	4	248	0.01	29.679 
11:00	38.0	38.0	38.0	76	31.1	3	7	248	0.00	29.682 
11:05	38.0	38.0	38.0	75	30.8	3	7	248	0.00	29.682 
11:10	38.2	38.2	38.2	75	31.0	1	4	248	0.00	29.682 
11:15	38.3	38.3	38.3	76	31.4	1	6	248	0.00	29.687 
11:20	38.6	38.6	38.6	74	31.0	2	5	248	0.00	29.687 
11:25	38.8	38.8	38.8	72	30.6	3	7	248	0.00	29.687 
11:30	38.9	38.9	38.9	71	30.3	2	6	248	0.00	29.683 
11:35	38.9	38.9	38.9	70	30.0	2	6	248	0.00	29.683 
11:40	38.8	38.8	38.8	69	29.5	3	9	248	0.00	29.683 
11:45	38.8	38.8	38.8	69	29.5	3	9	248	0.00	29.688 
11:50	38.8	38.8	38.8	70	29.9	2	6	248	0.00	29.688 
11:55	38.9	38.9	38.9	70	30.0	3	10	248	0.00	29.688 
12:00	38.9	38.9	38.9	71	30.3	3	7	248	0.00	29.694 
12:05	38.9	38.9	38.9	71	30.3	2	5	248	0.01	29.694 
12:10	39.1	39.1	39.1	71	30.5	2	6	248	0.00	29.694 
12:15	39.1	39.1	39.1	71	30.5	2	5	248	0.00	29.696 
12:20	39.2	39.2	39.2	72	30.9	1	5	248	0.00	29.696 
12:25	39.1	39.1	39.1	71	30.5	3	7	248	0.00	29.696 
12:30	39.1	39.1	39.1	71	30.5	2	5	248	0.00	29.698 
12:35	39.1	39.1	39.1	72	30.8	2	6	248	0.00	29.698 
12:40	39.1	39.1	39.1	71	30.5	3	6	248	0.00	29.698 
12:45	39.1	39.1	39.1	71	30.5	2	7	248	0.00	29.699 
12:50	39.2	39.2	39.2	70	30.3	3	8	248	0.00	29.699 
12:55	39.2	39.2	39.2	70	30.3	2	6	248	0.00	29.699 
13:00	39.3	39.3	39.3	70	30.3	2	6	248	0.00	29.701 
13:05	39.5	39.5	39.5	69	30.2	3	11	248	0.00	29.701 
13:10	39.5	36.7	39.5	69	30.2	4	9	248	0.00	29.701 
13:15	39.5	39.5	39.5	69	30.2	3	10	270	0.00	29.708 
13:20	39.5	36.7	39.5	69	30.2	4	9	248	0.00	29.708 
13:25	39.6	39.6	39.6	69	30.3	3	7	248	0.00	29.708 
13:30	39.5	39.5	39.5	70	30.5	3	9	270	0.01	29.711 
13:35	39.5	39.5	39.5	72	31.2	2	5	248	0.00	29.711 
13:40	39.5	39.5	39.5	73	31.6	2	5	248	0.00	29.711 
13:45	39.5	39.5	39.5	73	31.6	2	4	248	0.00	29.709 
13:50	39.6	39.6	39.6	73	31.7	2	5	248	0.00	29.709 
13:55	39.8	39.8	39.8	71	31.2	2	6	248	0.00	29.709 
14:00	39.9	39.9	39.9	70	30.9	2	7	248	0.00	29.711 
14:05	40.1	40.1	40.1	70	31.1	3	7	248	0.00	29.711 
14:10	40.1	40.1	40.1	69	30.8	2	6	248	0.00	29.711 
14:15	40.2	40.2	40.2	69	30.9	2	7	248	0.00	29.715 
14:20	40.2	40.2	40.2	69	30.9	1	5	248	0.00	29.715 
14:25	40.3	40.3	40.3	70	31.3	2	9	248	0.00	29.715 
14:30	40.2	40.2	40.2	70	31.2	2	7	248	0.00	29.719 
14:35	40.2	40.2	40.2	71	31.6	3	9	248	0.00	29.719 
14:40	40.1	40.1	40.1	71	31.5	2	5	248	0.00	29.719 
14:45	40.1	40.1	40.1	72	31.8	3	7	248	0.00	29.731 
14:50	40.1	40.1	40.1	72	31.8	3	7	248	0.00	29.731 
14:55	40.1	40.1	40.1	73	32.2	2	5	248	0.00	29.731 
15:00	40.2	40.2	40.2	73	32.2	1	5	248	0.00	29.734 
15:05	40.5	40.5	40.5	73	32.5	2	4	248	0.00	29.734 
15:10	40.6	40.6	40.6	73	32.6	2	5	248	0.01	29.734 
15:15	40.6	40.6	40.6	72	32.3	2	5	248	0.00	29.736 
15:20	40.8	40.8	40.8	71	32.1	1	5	248	0.00	29.736 
15:25	40.8	40.8	40.8	71	32.1	2	7	248	0.00	29.736 
15:30	40.9	40.9	40.9	71	32.2	1	6	248	0.00	29.739 
15:35	41.1	41.1	41.1	70	32.1	3	9	248	0.00	29.739 
15:40	41.2	41.2	41.2	70	32.2	2	6	248	0.00	29.739 
15:45	41.3	41.3	41.3	71	32.6	1	6	248	0.00	29.740 
15:50	41.3	41.3	41.3	71	32.6	1	4	248	0.00	29.740 
15:55	41.5	41.5	41.5	70	32.5	2	11	248	0.00	29.740 
16:00	41.8	41.8	41.8	70	32.7	3	7	248	0.00	29.740 
16:05	42.2	42.2	42.2	70	33.1	3	7	248	0.00	29.740 
16:10	42.9	42.9	42.9	69	33.4	2	5	248	0.00	29.740 
16:15	43.1	43.1	43.1	68	33.3	3	7	248	0.00	29.739 
16:20	42.9	42.9	42.9	66	32.3	2	7	248	0.00	29.739 
16:25	42.6	42.6	42.6	66	32.0	3	7	248	0.00	29.739 
16:30	42.6	42.6	42.6	67	32.4	2	6	248	0.00	29.740 
16:35	42.8	42.8	42.8	66	32.2	2	6	248	0.00	29.740 
16:40	42.9	42.9	42.9	65	32.0	3	6	248	0.00	29.740 
16:45	43.1	43.1	43.1	65	32.1	2	7	248	0.00	29.746 
16:50	43.2	43.2	43.2	65	32.2	3	10	248	0.00	29.746 
16:55	43.2	43.2	43.2	65	32.2	2	5	270	0.00	29.746 
17:00	43.1	43.1	43.1	64	31.8	3	9	248	0.00	29.753 
17:05	42.8	42.8	42.8	65	31.9	3	7	248	0.00	29.753 
17:10	42.6	42.6	42.6	65	31.7	3	11	248	0.00	29.753 
17:15	42.2	42.2	42.2	68	32.4	3	14	248	0.00	29.761 
17:20	41.9	39.5	41.9	71	33.2	4	14	248	0.00	29.761 
17:25	41.6	41.6	41.6	72	33.3	3	7	248	0.00	29.761 
17:30	41.6	41.6	41.6	72	33.3	2	6	248	0.00	29.764 
17:35	41.8	41.8	41.8	70	32.7	2	5	248	0.01	29.764 
17:40	41.9	41.9	41.9	69	32.5	3	7	248	0.00	29.764 
17:45	42.2	42.2	42.2	68	32.4	3	6	248	0.00	29.768 
17:50	42.3	42.3	42.3	69	32.9	2	6	248	0.00	29.768 
17:55	42.6	42.6	42.6	68	32.8	2	7	248	0.00	29.768 
18:00	42.6	42.6	42.6	68	32.8	2	5	248	0.00	29.771 
18:05	42.6	42.6	42.6	69	33.2	3	10	248	0.00	29.771 
18:10	42.5	42.5	42.5	70	33.4	3	13	248	0.00	29.771 
18:15	42.3	42.3	42.3	71	33.6	3	11	248	0.00	29.783 
18:20	42.2	42.2	42.2	72	33.8	3	7	248	0.00	29.783 
18:25	42.1	39.7	42.1	72	33.7	4	13	248	0.00	29.783 
18:30	41.9	41.9	41.9	73	33.9	3	9	248	0.00	29.787 
18:35	41.8	41.8	41.8	74	34.1	3	13	248	0.00	29.787 
18:40	41.6	41.6	41.6	75	34.3	3	13	248	0.00	29.787 
18:45	41.6	41.6	41.6	75	34.3	3	12	248	0.00	29.791 
18:50	41.8	41.8	41.8	75	34.5	3	10	248	0.00	29.791 
18:55	41.8	41.8	41.8	75	34.5	3	9	248	0.00	29.791 
19:00	41.9	41.9	41.9	75	34.6	2	6	248	0.00	29.790 
19:05	41.9	41.9	41.9	75	34.6	3	9	248	0.00	29.790 
19:10	41.9	41.9	41.9	75	34.6	3	7	248	0.00	29.790 
19:15	41.9	41.9	41.9	75	34.6	3	8	248	0.00	29.791 
19:20	41.9	41.9	41.9	75	34.6	3	10	248	0.00	29.791 
19:25	41.6	41.6	41.6	77	34.9	3	7	248	0.00	29.791 
19:30	41.5	41.5	41.5	79	35.5	3	6	248	0.00	29.803 
19:35	41.1	41.1	41.1	81	35.7	2	9	248	0.00	29.803 
19:40	40.8	40.8	40.8	83	36.0	2	6	248	0.00	29.803 
19:45	40.6	40.6	40.6	83	35.8	3	7	248	0.00	29.804 
19:50	40.5	40.5	40.5	84	36.1	2	7	248	0.00	29.804 
19:55	40.5	40.5	40.5	84	36.1	3	9	248	0.00	29.804 
20:00	40.5	40.5	40.5	84	36.1	2	9	248	0.00	29.806 
20:05	40.3	40.3	40.3	85	36.2	1	4	248	0.00	29.806 
20:10	40.5	40.5	40.5	85	36.4	1	6	248	0.00	29.806 
20:15	40.5	40.5	40.5	85	36.4	2	5	248	0.00	29.806 
20:20	40.5	40.5	40.5	85	36.4	2	5	248	0.00	29.806 
20:25	40.5	40.5	40.5	85	36.4	2	7	270	0.00	29.806 
20:30	40.6	40.6	40.6	85	36.4	1	4	248	0.00	29.807 
20:35	40.6	40.6	40.6	84	36.2	2	9	248	0.00	29.807 
20:40	40.6	40.6	40.6	84	36.2	2	6	248	0.00	29.807 
20:45	40.6	40.6	40.6	85	36.4	2	5	248	0.00	29.816 
20:50	40.6	40.6	40.6	85	36.4	2	5	248	0.00	29.816 
20:55	40.6	40.6	40.6	85	36.4	2	6	248	0.00	29.816 
21:00	40.6	40.6	40.6	85	36.4	1	3	248	0.00	29.820 
21:05	40.6	40.6	40.6	85	36.4	2	9	248	0.00	29.820 
21:10	40.5	40.5	40.5	86	36.6	2	6	248	0.00	29.820 
21:15	40.5	40.5	40.5	86	36.6	2	6	248	0.00	29.821 
21:20	40.5	40.5	40.5	86	36.6	2	7	248	0.00	29.821 
21:25	40.5	40.5	40.5	86	36.6	3	10	248	0.00	29.821 
21:30	40.5	40.5	40.5	86	36.6	1	5	248	0.00	29.829 
21:35	40.5	40.5	40.5	86	36.6	2	5	248	0.00	29.829 
21:40	40.5	40.5	40.5	85	36.4	2	6	248	0.00	29.829 
21:45	40.5	40.5	40.5	85	36.4	2	5	248	0.00	29.834 
21:50	40.5	40.5	40.5	85	36.4	2	5	248	0.00	29.834 
21:55	40.6	40.6	40.6	84	36.2	2	5	270	0.00	29.834 
22:00	40.6	40.6	40.6	84	36.2	2	7	248	0.00	29.839 
22:05	40.6	40.6	40.6	83	35.8	2	6	248	0.00	29.839 
22:10	40.8	40.8	40.8	83	36.0	2	6	248	0.00	29.839 
22:15	40.8	40.8	40.8	83	36.0	2	4	248	0.00	29.848 
22:20	40.8	40.8	40.8	83	36.0	3	7	248	0.00	29.848 
22:25	40.6	40.6	40.6	83	35.8	2	5	248	0.00	29.848 
22:30	40.8	40.8	40.8	83	36.0	2	7	248	0.00	29.850 
22:35	40.6	40.6	40.6	82	35.5	3	7	248	0.00	29.850 
22:40	40.6	40.6	40.6	81	35.2	3	10	248	0.00	29.850 
22:45	40.5	40.5	40.5	81	35.1	2	5	248	0.00	29.851 
22:50	40.3	40.3	40.3	81	34.9	2	5	248	0.00	29.851 
22:55	39.9	39.9	39.9	81	34.6	2	6	248	0.00	29.851 
23:00	39.6	39.6	39.6	82	34.6	2	6	248	0.00	29.854 
23:05	39.3	39.3	39.3	83	34.6	3	6	248	0.00	29.854 
23:10	39.2	39.2	39.2	84	34.8	2	5	248	0.00	29.854 
23:15	39.1	39.1	39.1	84	34.7	2	5	248	0.00	29.855 
23:20	39.1	39.1	39.1	84	34.7	3	6	248	0.00	29.855 
23:25	39.1	39.1	39.1	84	34.7	1	4	248	0.00	29.855 
23:30	39.1	39.1	39.1	84	34.7	1	6	248	0.00	29.856 
23:35	39.1	39.1	39.1	84	34.7	2	6	248	0.00	29.856 
23:40	38.9	38.9	38.9	84	34.5	2	7	248	0.00	29.856 
23:45	38.9	38.9	38.9	84	34.5	2	5	248	0.00	29.857 
23:50	38.9	38.9	38.9	84	34.5	2	7	248	0.00	29.857 
23:55	38.9	38.9	38.9	84	34.5	3	6	248	0.00	29.857 

CoCoRaHS
IN-AL-39
A2 Web Hosting
Creative Commons License
GoDaddy
search engine by freefind advanced

loaded 2018-11-13 17:30:26 • last modified 2010-11-18 10:43:29
Privacy PolicyDisclaimer
• wx.awcolley.com is powered by PmWiki v.2002016 •
• all content (unless otherwise noted) © 2018 A W Colley